createdAt,value
2019-04-23T00:02:19.211Z,16.72
2019-04-23T00:07:43.116Z,16.63
2019-04-23T00:12:43.843Z,16.57
2019-04-23T00:17:42.513Z,16.48
2019-04-23T00:23:16.410Z,16.43
2019-04-23T00:33:30.242Z,16.27
2019-04-23T00:38:38.935Z,16.20
2019-04-23T00:43:47.099Z,16.12
2019-04-23T00:53:56.779Z,15.97
2019-04-23T00:59:05.275Z,15.89
2019-04-23T01:04:15.721Z,15.83
2019-04-23T01:09:22.721Z,15.76
2019-04-23T01:14:27.478Z,15.70
2019-04-23T01:19:54.725Z,15.65
2019-04-23T01:24:48.233Z,15.61
2019-04-23T01:35:51.106Z,15.50
2019-04-23T01:45:30.766Z,15.41
2019-04-23T01:50:52.833Z,15.36
2019-04-23T02:11:13.347Z,15.21
2019-04-23T02:16:24.649Z,15.16
2019-04-23T02:21:35.127Z,15.10
2019-04-23T02:26:39.862Z,15.07
2019-04-23T02:31:57.657Z,15.01
2019-04-23T02:42:23.302Z,14.92
2019-04-23T02:52:21.803Z,14.84
2019-04-23T02:57:29.092Z,14.80
2019-04-23T03:13:04.428Z,14.70
2019-04-23T03:18:39.796Z,14.68
2019-04-23T03:28:46.334Z,14.63
2019-04-23T03:38:51.974Z,14.60
2019-04-23T03:43:51.599Z,14.59
2019-04-23T03:54:26.004Z,14.57
2019-04-23T03:59:22.751Z,14.55
2019-04-23T04:04:24.754Z,14.53
2019-04-23T04:09:34.180Z,14.54
2019-04-23T04:14:46.323Z,14.56
2019-04-23T04:24:48.281Z,14.58
2019-04-23T04:30:02.377Z,14.61
2019-04-23T04:35:18.939Z,14.65
2019-04-23T04:45:37.004Z,14.80
2019-04-23T04:50:24.189Z,14.88
2019-04-23T04:55:41.222Z,15.00
2019-04-23T05:00:59.083Z,15.11
2019-04-23T05:06:04.999Z,15.25
2019-04-23T05:11:02.049Z,15.38
2019-04-23T05:26:20.994Z,15.91
2019-04-23T05:31:23.303Z,16.08
2019-04-23T05:46:49.061Z,16.49
2019-04-23T05:51:55.042Z,16.67
2019-04-23T05:56:55.063Z,16.90
2019-04-23T06:02:23.208Z,17.15
2019-04-23T06:07:31.386Z,17.49
2019-04-23T06:12:21.406Z,17.89
2019-04-23T06:17:27.139Z,18.67
2019-04-23T06:22:42.401Z,19.85
2019-04-23T06:27:37.980Z,20.88
2019-04-23T06:32:52.138Z,22.13
2019-04-23T06:38:26.176Z,23.61
2019-04-23T06:48:32.127Z,27.46
2019-04-23T06:53:27.320Z,29.82
2019-04-23T06:58:37.350Z,31.51
2019-04-23T07:09:09.661Z,31.94
2019-04-23T07:13:58.291Z,31.42
2019-04-23T07:19:09.223Z,29.81
2019-04-23T07:24:15.284Z,28.41
2019-04-23T07:34:26.382Z,29.28
2019-04-23T07:40:06.192Z,31.00
2019-04-23T07:45:17.397Z,31.32
2019-04-23T07:50:35.579Z,30.79
2019-04-23T07:55:34.434Z,30.65
2019-04-23T08:00:41.911Z,30.89
2019-04-23T08:05:39.790Z,31.38
2019-04-23T08:16:35.809Z,30.47
2019-04-23T08:21:30.706Z,30.54
2019-04-23T08:26:59.558Z,31.97
2019-04-23T08:32:12.368Z,33.53
2019-04-23T08:37:15.444Z,34.14
2019-04-23T08:42:37.997Z,34.37
2019-04-23T08:47:37.878Z,32.78
2019-04-23T08:52:43.032Z,30.83
2019-04-23T08:57:43.730Z,29.42
2019-04-23T09:03:02.757Z,28.83
2019-04-23T09:18:22.087Z,29.01
2019-04-23T09:23:36.361Z,29.94
2019-04-23T09:28:40.141Z,30.78
2019-04-23T09:39:10.553Z,32.55
2019-04-23T09:44:42.679Z,33.49
2019-04-23T09:49:26.041Z,34.47
2019-04-23T09:59:44.432Z,32.72
2019-04-23T10:04:36.199Z,31.52
2019-04-23T10:09:28.136Z,30.19
2019-04-23T10:14:34.526Z,28.44
2019-04-23T10:19:40.647Z,27.16
2019-04-23T10:24:46.267Z,26.54
2019-04-23T10:29:54.098Z,26.07
2019-04-23T10:35:10.155Z,25.57
2019-04-23T10:40:11.316Z,25.26
2019-04-23T10:45:34.906Z,25.02
2019-04-23T10:51:04.420Z,24.95
2019-04-23T10:56:18.499Z,24.69
2019-04-23T11:01:22.830Z,24.55
2019-04-23T11:06:41.381Z,24.69
2019-04-23T11:21:43.683Z,25.02
2019-04-23T11:26:49.566Z,25.07
2019-04-23T11:32:19.356Z,25.24
2019-04-23T11:42:16.888Z,25.26
2019-04-23T11:47:59.198Z,25.22
2019-04-23T11:52:35.667Z,25.37
2019-04-23T11:58:02.713Z,25.53
2019-04-23T12:13:26.917Z,25.36
2019-04-23T12:18:34.916Z,25.44
2019-04-23T12:23:49.867Z,25.46
2019-04-23T12:28:45.520Z,25.34
2019-04-23T12:33:50.523Z,25.29
2019-04-23T12:38:56.436Z,25.21
2019-04-23T12:44:10.620Z,25.10
2019-04-23T12:49:28.668Z,25.09
2019-04-23T12:54:37.358Z,25.34
2019-04-23T12:59:28.676Z,25.55
2019-04-23T13:04:38.296Z,25.63
2019-04-23T13:09:54.492Z,25.68
2019-04-23T13:15:00.781Z,25.67
2019-04-23T13:20:00.705Z,25.65
2019-04-23T13:25:19.983Z,25.67
2019-04-23T13:30:34.416Z,25.61
2019-04-23T13:35:53.248Z,25.60
2019-04-23T13:45:59.211Z,25.64
2019-04-23T13:56:02.120Z,25.75
2019-04-23T14:11:26.324Z,25.48
2019-04-23T14:21:51.721Z,25.55
2019-04-23T14:26:38.458Z,25.54
2019-04-23T14:32:01.318Z,25.59
2019-04-23T14:42:35.217Z,25.47
2019-04-23T14:52:31.029Z,25.48
2019-04-23T14:57:34.104Z,25.52
2019-04-23T15:07:42.182Z,25.56
2019-04-23T15:12:53.928Z,25.54
2019-04-23T15:18:01.837Z,25.50
2019-04-23T15:23:33.433Z,25.47
2019-04-23T15:28:06.775Z,25.50
2019-04-23T15:33:29.918Z,25.48
2019-04-23T15:43:41.167Z,25.22
2019-04-23T15:48:42.735Z,25.04
2019-04-23T15:53:48.519Z,24.91
2019-04-23T16:03:35.993Z,24.86
2019-04-23T16:14:33.223Z,24.87
2019-04-23T16:19:42.899Z,24.84
2019-04-23T16:24:57.296Z,24.74
2019-04-23T16:35:15.661Z,24.64
2019-04-23T16:40:19.911Z,24.60
2019-04-23T16:45:29.373Z,24.58
2019-04-23T16:50:29.216Z,24.56
2019-04-23T16:55:37.822Z,24.50
2019-04-23T17:05:53.859Z,24.34
2019-04-23T17:11:00.155Z,24.24
2019-04-23T17:16:06.766Z,24.13
2019-04-23T17:21:20.250Z,24.02
2019-04-23T17:26:19.107Z,23.91
2019-04-23T17:36:56.131Z,23.72
2019-04-23T17:42:18.167Z,23.63
2019-04-23T17:47:24.345Z,23.51
2019-04-23T17:52:26.274Z,23.39
2019-04-23T17:57:28.317Z,23.27
2019-04-23T18:07:53.994Z,23.05
2019-04-23T18:18:26.832Z,22.80
2019-04-23T18:23:09.655Z,22.69
2019-04-23T18:28:08.483Z,22.61
2019-04-23T18:38:41.592Z,22.50
2019-04-23T18:43:50.968Z,22.42
2019-04-23T18:49:15.864Z,22.34
2019-04-23T18:54:03.062Z,22.27
2019-04-23T18:59:15.002Z,22.20
2019-04-23T19:04:41.599Z,22.16
2019-04-23T19:10:17.102Z,22.12
2019-04-23T19:15:22.278Z,22.05
2019-04-23T19:20:29.829Z,22.00
2019-04-23T19:30:49.564Z,21.83
2019-04-23T19:41:00.253Z,21.65
2019-04-23T19:46:02.023Z,21.57
2019-04-23T20:06:51.792Z,21.46
2019-04-23T20:11:42.290Z,21.45
2019-04-23T20:16:50.306Z,21.45
2019-04-23T20:21:59.224Z,21.45
2019-04-23T20:27:10.572Z,21.42
2019-04-23T20:37:25.466Z,21.42
2019-04-23T20:42:33.914Z,21.40
2019-04-23T20:47:34.488Z,21.37
2019-04-23T20:52:41.430Z,21.34
2019-04-23T20:57:48.473Z,21.28
2019-04-23T21:03:26.056Z,21.19
2019-04-23T21:08:14.827Z,21.08
2019-04-23T21:18:44.820Z,20.89
2019-04-23T21:23:37.630Z,20.79
2019-04-23T21:28:47.476Z,20.70
2019-04-23T21:34:06.122Z,20.59
2019-04-23T21:44:28.015Z,20.45
2019-04-23T21:54:49.179Z,20.40
2019-04-23T21:59:55.509Z,20.38
2019-04-23T22:05:01.146Z,20.37
2019-04-23T22:15:13.022Z,20.30
2019-04-23T22:20:25.765Z,20.25
2019-04-23T22:25:44.297Z,20.19
2019-04-23T22:30:50.002Z,20.12
2019-04-23T22:36:01.388Z,20.09
2019-04-23T22:40:58.489Z,20.07
2019-04-23T22:51:10.608Z,20.09
2019-04-23T22:56:13.769Z,20.09
2019-04-23T23:01:26.627Z,20.09
2019-04-23T23:06:43.519Z,20.09
2019-04-23T23:11:45.707Z,20.11
2019-04-23T23:27:02.428Z,20.19
2019-04-23T23:32:23.019Z,20.20
2019-04-23T23:37:12.177Z,20.20
2019-04-23T23:42:25.310Z,20.19
2019-04-23T23:47:29.549Z,20.16
2019-04-23T23:52:48.966Z,20.13
2019-04-23T23:57:50.381Z,20.09
